Time,TemperatureF,DewpointF,PressureIn,WindDirection,WindDirectionDegrees,WindSpeedMPH,WindSpeedGustMPH,Humidity,HourlyPrecipIn,Conditions,Clouds,dailyrainin,SoftwareType,DateUTC
2013-03-07 00:03:00,45.8,31.0,30.26,ESE,104,0.0,-999.0,57,-99.99,,,0.00,weatherlink.com 1.10,2013-03-07 06:03:00,
2013-03-07 00:18:00,45.5,31.0,30.26,East,93,0.0,-999.0,57,-99.99,,,0.00,weatherlink.com 1.10,2013-03-07 06:18:00,
2013-03-07 00:33:00,45.4,31.0,30.26,ENE,73,0.0,-999.0,57,-99.99,,,0.00,weatherlink.com 1.10,2013-03-07 06:33:00,
2013-03-07 00:48:00,45.2,31.0,30.25,NE,40,0.0,-999.0,57,-99.99,,,0.00,weatherlink.com 1.10,2013-03-07 06:48:00,
2013-03-07 01:03:00,45.2,31.0,30.26,ENE,64,0.0,-999.0,58,-99.99,,,0.00,weatherlink.com 1.10,2013-03-07 07:03:00,
2013-03-07 01:18:00,45.2,31.0,30.26,ENE,64,0.0,-999.0,58,-99.99,,,0.00,weatherlink.com 1.10,2013-03-07 07:18:00,
2013-03-07 01:33:00,44.9,31.0,30.26,ENE,64,0.0,-999.0,59,-99.99,,,0.00,weatherlink.com 1.10,2013-03-07 07:33:00,
2013-03-07 01:48:00,44.6,31.0,30.28,ENE,64,0.0,-999.0,59,-99.99,,,0.00,weatherlink.com 1.10,2013-03-07 07:48:00,
2013-03-07 02:03:00,44.3,31.0,30.27,ENE,64,0.0,-999.0,60,-99.99,,,0.00,weatherlink.com 1.10,2013-03-07 08:03:00,
2013-03-07 02:18:00,44.1,31.0,30.26,ENE,64,2.0,-999.0,60,-99.99,,,0.00,weatherlink.com 1.10,2013-03-07 08:18:00,
2013-03-07 02:33:00,43.3,30.0,30.27,ENE,64,0.0,-999.0,61,-99.99,,,0.00,weatherlink.com 1.10,2013-03-07 08:33:00,
2013-03-07 02:47:00,42.8,30.0,30.26,ENE,64,0.0,-999.0,62,-99.99,,,0.00,weatherlink.com 1.10,2013-03-07 08:47:00,
2013-03-07 03:03:00,42.1,30.0,30.25,ENE,64,0.0,-999.0,63,-99.99,,,0.00,weatherlink.com 1.10,2013-03-07 09:03:00,
2013-03-07 03:18:00,41.2,29.0,30.26,ENE,64,0.0,-999.0,63,-99.99,,,0.00,weatherlink.com 1.10,2013-03-07 09:18:00,
2013-03-07 03:33:00,40.3,29.0,30.26,ENE,64,0.0,-999.0,64,-99.99,,,0.00,weatherlink.com 1.10,2013-03-07 09:33:00,
2013-03-07 03:48:00,39.8,29.0,30.26,ENE,64,0.0,-999.0,65,-99.99,,,0.00,weatherlink.com 1.10,2013-03-07 09:48:00,
2013-03-07 04:02:00,38.9,29.0,30.26,ENE,64,0.0,-999.0,67,-99.99,,,0.00,weatherlink.com 1.10,2013-03-07 10:02:00,
2013-03-07 04:18:00,38.2,29.0,30.27,ENE,64,0.0,-999.0,69,-99.99,,,0.00,weatherlink.com 1.10,2013-03-07 10:18:00,
2013-03-07 04:32:00,37.5,29.0,30.26,ENE,64,0.0,-999.0,70,-99.99,,,0.00,weatherlink.com 1.10,2013-03-07 10:32:00,
2013-03-07 04:48:00,36.9,29.0,30.26,ENE,64,0.0,-999.0,73,-99.99,,,0.00,weatherlink.com 1.10,2013-03-07 10:48:00,
2013-03-07 05:03:00,36.3,29.0,30.27,ENE,64,0.0,-999.0,75,-99.99,,,0.00,weatherlink.com 1.10,2013-03-07 11:03:00,
2013-03-07 05:18:00,36.0,29.0,30.27,ENE,64,0.0,-999.0,77,-99.99,,,0.00,weatherlink.com 1.10,2013-03-07 11:18:00,
2013-03-07 05:33:00,35.6,29.0,30.28,ENE,64,0.0,-999.0,78,-99.99,,,0.00,weatherlink.com 1.10,2013-03-07 11:33:00,
2013-03-07 05:48:00,35.2,29.0,30.27,ENE,64,0.0,-999.0,79,-99.99,,,0.00,weatherlink.com 1.10,2013-03-07 11:48:00,
2013-03-07 06:03:00,34.9,29.0,30.28,ENE,64,0.0,-999.0,80,-99.99,,,0.00,weatherlink.com 1.10,2013-03-07 12:03:00,
2013-03-07 06:18:00,34.6,29.0,30.29,ENE,64,0.0,-999.0,81,-99.99,,,0.00,weatherlink.com 1.10,2013-03-07 12:18:00,
2013-03-07 06:33:00,34.4,29.0,30.30,ENE,64,0.0,-999.0,82,-99.99,,,0.00,weatherlink.com 1.10,2013-03-07 12:33:00,
2013-03-07 06:48:00,34.0,29.0,30.31,ENE,64,0.0,-999.0,83,-99.99,,,0.00,weatherlink.com 1.10,2013-03-07 12:48:00,
2013-03-07 07:03:00,34.0,29.0,30.31,ENE,64,0.0,-999.0,83,-99.99,,,0.00,weatherlink.com 1.10,2013-03-07 13:03:00,
2013-03-07 07:18:00,35.0,31.0,30.31,ENE,64,0.0,-999.0,86,-99.99,,,0.00,weatherlink.com 1.10,2013-03-07 13:18:00,
2013-03-07 07:33:00,37.0,33.0,30.32,ENE,64,0.0,-999.0,86,-99.99,,,0.00,weatherlink.com 1.10,2013-03-07 13:33:00,
2013-03-07 07:48:00,40.3,35.0,30.33,ENE,64,0.0,-999.0,82,-99.99,,,0.00,weatherlink.com 1.10,2013-03-07 13:48:00,
2013-03-07 08:03:00,43.1,35.0,30.34,ESE,117,3.0,-999.0,74,-99.99,,,0.00,weatherlink.com 1.10,2013-03-07 14:03:00,
2013-03-07 08:18:00,45.2,35.0,30.34,ENE,64,1.0,-999.0,67,-99.99,,,0.00,weatherlink.com 1.10,2013-03-07 14:18:00,
2013-03-07 08:33:00,47.1,34.0,30.34,ESE,121,1.0,-999.0,60,-99.99,,,0.00,weatherlink.com 1.10,2013-03-07 14:33:00,
2013-03-07 08:48:00,48.0,34.0,30.34,East,95,2.0,-999.0,58,-99.99,,,0.00,weatherlink.com 1.10,2013-03-07 14:48:00,
2013-03-07 09:03:00,48.3,33.0,30.34,ESE,106,5.0,-999.0,56,-99.99,,,0.00,weatherlink.com 1.10,2013-03-07 15:03:00,
2013-03-07 09:18:00,49.4,34.0,30.34,SE,128,1.0,-999.0,55,-99.99,,,0.00,weatherlink.com 1.10,2013-03-07 15:18:00,
2013-03-07 09:33:00,49.8,33.0,30.34,ESE,116,2.0,-999.0,53,-99.99,,,0.00,weatherlink.com 1.10,2013-03-07 15:33:00,
2013-03-07 09:48:00,51.3,34.0,30.33,SE,134,0.0,-999.0,53,-99.99,,,0.00,weatherlink.com 1.10,2013-03-07 15:48:00,
2013-03-07 10:03:00,51.6,33.0,30.33,East,96,1.0,-999.0,50,-99.99,,,0.00,weatherlink.com 1.10,2013-03-07 16:03:00,
2013-03-07 10:18:00,52.9,34.0,30.33,East,92,3.0,-999.0,49,-99.99,,,0.00,weatherlink.com 1.10,2013-03-07 16:18:00,
2013-03-07 10:33:00,53.8,35.0,30.32,ESE,112,0.0,-999.0,49,-99.99,,,0.00,weatherlink.com 1.10,2013-03-07 16:33:00,
2013-03-07 10:48:00,55.9,36.0,30.33,East,95,0.0,-999.0,47,-99.99,,,0.00,weatherlink.com 1.10,2013-03-07 16:48:00,
2013-03-07 11:03:00,55.7,34.0,30.32,NE,52,1.0,-999.0,45,-99.99,,,0.00,weatherlink.com 1.10,2013-03-07 17:03:00,
2013-03-07 11:18:00,56.9,34.0,30.32,ESE,120,2.0,-999.0,42,-99.99,,,0.00,weatherlink.com 1.10,2013-03-07 17:18:00,
2013-03-07 11:33:00,57.8,33.0,30.31,South,178,0.0,-999.0,40,-99.99,,,0.00,weatherlink.com 1.10,2013-03-07 17:33:00,
2013-03-07 11:47:00,58.4,35.0,30.30,ESE,114,2.0,-999.0,41,-99.99,,,0.00,weatherlink.com 1.10,2013-03-07 17:47:00,
2013-03-07 12:17:00,59.9,31.0,30.29,North,6,1.0,-999.0,34,-99.99,,,0.00,weatherlink.com 1.10,2013-03-07 18:17:00,
2013-03-07 12:33:00,61.5,33.0,30.28,East,88,3.0,-999.0,34,-99.99,,,0.00,weatherlink.com 1.10,2013-03-07 18:33:00,
2013-03-07 12:48:00,61.6,32.0,30.27,WNW,291,0.0,-999.0,33,-99.99,,,0.00,weatherlink.com 1.10,2013-03-07 18:48:00,
2013-03-07 13:02:00,62.3,33.0,30.26,ESE,107,0.0,-999.0,33,-99.99,,,0.00,weatherlink.com 1.10,2013-03-07 19:02:00,
2013-03-07 13:17:00,62.7,33.0,30.25,ESE,110,1.0,-999.0,33,-99.99,,,0.00,weatherlink.com 1.10,2013-03-07 19:17:00,
2013-03-07 13:32:00,62.7,31.0,30.24,ESE,109,5.0,-999.0,31,-99.99,,,0.00,weatherlink.com 1.10,2013-03-07 19:32:00,
2013-03-07 13:47:00,62.3,31.0,30.23,SSE,165,0.0,-999.0,31,-99.99,,,0.00,weatherlink.com 1.10,2013-03-07 19:47:00,
2013-03-07 14:02:00,61.8,31.0,30.23,South,172,0.0,-999.0,31,-99.99,,,0.00,weatherlink.com 1.10,2013-03-07 20:02:00,
2013-03-07 14:18:00,62.4,31.0,30.22,South,172,3.0,-999.0,31,-99.99,,,0.00,weatherlink.com 1.10,2013-03-07 20:18:00,
2013-03-07 14:32:00,63.2,33.0,30.22,South,178,0.0,-999.0,32,-99.99,,,0.00,weatherlink.com 1.10,2013-03-07 20:32:00,
2013-03-07 14:47:00,62.9,32.0,30.21,SSE,152,2.0,-999.0,31,-99.99,,,0.00,weatherlink.com 1.10,2013-03-07 20:47:00,
2013-03-07 15:17:00,64.2,32.0,30.20,ENE,71,0.0,-999.0,30,-99.99,,,0.00,weatherlink.com 1.10,2013-03-07 21:17:00,
2013-03-07 15:32:00,64.0,32.0,30.20,NE,51,0.0,-999.0,30,-99.99,,,0.00,weatherlink.com 1.10,2013-03-07 21:32:00,
2013-03-07 15:47:00,64.0,33.0,30.20,ESE,112,1.0,-999.0,31,-99.99,,,0.00,weatherlink.com 1.10,2013-03-07 21:47:00,
2013-03-07 16:02:00,62.7,31.0,30.20,SSW,193,0.0,-999.0,31,-99.99,,,0.00,weatherlink.com 1.10,2013-03-07 22:02:00,
2013-03-07 16:17:00,63.9,33.0,30.19,SSE,164,0.0,-999.0,32,-99.99,,,0.00,weatherlink.com 1.10,2013-03-07 22:17:00,
2013-03-07 16:32:00,63.9,34.0,30.19,South,174,2.0,-999.0,33,-99.99,,,0.00,weatherlink.com 1.10,2013-03-07 22:32:00,
2013-03-07 16:47:00,62.9,34.0,30.20,South,169,1.0,-999.0,34,-99.99,,,0.00,weatherlink.com 1.10,2013-03-07 22:47:00,
2013-03-07 17:02:00,63.1,33.0,30.19,ESE,109,1.0,-999.0,32,-99.99,,,0.00,weatherlink.com 1.10,2013-03-07 23:02:00,
2013-03-07 17:17:00,61.8,34.0,30.19,SE,127,3.0,-999.0,36,-99.99,,,0.00,weatherlink.com 1.10,2013-03-07 23:17:00,
2013-03-07 17:32:00,61.2,34.0,30.19,SE,136,2.0,-999.0,36,-99.99,,,0.00,weatherlink.com 1.10,2013-03-07 23:32:00,
2013-03-07 17:47:00,60.9,35.0,30.19,SE,137,0.0,-999.0,38,-99.99,,,0.00,weatherlink.com 1.10,2013-03-07 23:47:00,
2013-03-07 18:02:00,60.7,35.0,30.20,SE,137,0.0,-999.0,38,-99.99,,,0.00,weatherlink.com 1.10,2013-03-08 00:02:00,
2013-03-07 18:17:00,59.9,35.0,30.20,SE,137,0.0,-999.0,40,-99.99,,,0.00,weatherlink.com 1.10,2013-03-08 00:17:00,
2013-03-07 18:32:00,58.7,35.0,30.20,SE,137,0.0,-999.0,41,-99.99,,,0.00,weatherlink.com 1.10,2013-03-08 00:32:00,
2013-03-07 18:47:00,57.2,35.0,30.20,SE,137,0.0,-999.0,43,-99.99,,,0.00,weatherlink.com 1.10,2013-03-08 00:47:00,
2013-03-07 19:02:00,55.9,34.0,30.20,SE,137,0.0,-999.0,44,-99.99,,,0.00,weatherlink.com 1.10,2013-03-08 01:02:00,
2013-03-07 19:17:00,54.7,35.0,30.21,SE,137,0.0,-999.0,48,-99.99,,,0.00,weatherlink.com 1.10,2013-03-08 01:17:00,
2013-03-07 19:32:00,53.5,36.0,30.21,SE,137,0.0,-999.0,51,-99.99,,,0.00,weatherlink.com 1.10,2013-03-08 01:32:00,
2013-03-07 19:48:00,52.5,35.0,30.21,SE,137,0.0,-999.0,51,-99.99,,,0.00,weatherlink.com 1.10,2013-03-08 01:48:00,
2013-03-07 20:03:00,51.4,36.0,30.21,SE,137,0.0,-999.0,55,-99.99,,,0.00,weatherlink.com 1.10,2013-03-08 02:03:00,
2013-03-07 20:18:00,50.5,36.0,30.21,SE,137,0.0,-999.0,57,-99.99,,,0.00,weatherlink.com 1.10,2013-03-08 02:18:00,
2013-03-07 20:33:00,49.6,36.0,30.21,SE,137,0.0,-999.0,59,-99.99,,,0.00,weatherlink.com 1.10,2013-03-08 02:33:00,
2013-03-07 20:48:00,48.8,36.0,30.22,SE,137,0.0,-999.0,61,-99.99,,,0.00,weatherlink.com 1.10,2013-03-08 02:48:00,
2013-03-07 21:03:00,48.2,36.0,30.21,SE,137,0.0,-999.0,63,-99.99,,,0.00,weatherlink.com 1.10,2013-03-08 03:03:00,
2013-03-07 21:18:00,47.6,36.0,30.22,SE,137,0.0,-999.0,64,-99.99,,,0.00,weatherlink.com 1.10,2013-03-08 03:18:00,
2013-03-07 21:33:00,46.8,36.0,30.23,SE,137,0.0,-999.0,66,-99.99,,,0.00,weatherlink.com 1.10,2013-03-08 03:33:00,
2013-03-07 21:48:00,46.4,36.0,30.23,SE,137,0.0,-999.0,68,-99.99,,,0.00,weatherlink.com 1.10,2013-03-08 03:48:00,
2013-03-07 22:03:00,46.1,37.0,30.23,SE,137,0.0,-999.0,71,-99.99,,,0.00,weatherlink.com 1.10,2013-03-08 04:03:00,
2013-03-07 22:18:00,45.7,37.0,30.23,SE,137,0.0,-999.0,72,-99.99,,,0.00,weatherlink.com 1.10,2013-03-08 04:18:00,
2013-03-07 22:33:00,45.2,36.0,30.23,SE,137,0.0,-999.0,71,-99.99,,,0.00,weatherlink.com 1.10,2013-03-08 04:33:00,
2013-03-07 22:48:00,44.5,36.0,30.23,SE,137,0.0,-999.0,71,-99.99,,,0.00,weatherlink.com 1.10,2013-03-08 04:48:00,
2013-03-07 23:03:00,44.1,36.0,30.23,SE,137,0.0,-999.0,74,-99.99,,,0.00,weatherlink.com 1.10,2013-03-08 05:03:00,
2013-03-07 23:18:00,43.6,37.0,30.23,SE,137,0.0,-999.0,76,-99.99,,,0.00,weatherlink.com 1.10,2013-03-08 05:18:00,
2013-03-07 23:33:00,43.2,36.0,30.23,SE,137,0.0,-999.0,76,-99.99,,,0.00,weatherlink.com 1.10,2013-03-08 05:33:00,
2013-03-07 23:48:00,43.1,37.0,30.23,SE,137,0.0,-999.0,78,-99.99,,,0.00,weatherlink.com 1.10,2013-03-08 05:48:00,